sensor_id;sensor_type;location;lat;lon;timestamp;P1;durP1;ratioP1;P2;durP2;ratioP2
11957;SDS011;6039;52.576;13.348;2023-05-20T00:02:46;3.97;;;2.50;;
11957;SDS011;6039;52.576;13.348;2023-05-20T00:07:50;3.80;;;2.47;;
11957;SDS011;6039;52.576;13.348;2023-05-20T00:12:57;3.47;;;2.57;;
11957;SDS011;6039;52.576;13.348;2023-05-20T00:18:01;4.47;;;2.40;;
11957;SDS011;6039;52.576;13.348;2023-05-20T00:23:05;3.10;;;2.27;;
11957;SDS011;6039;52.576;13.348;2023-05-20T00:28:12;2.93;;;2.13;;
11957;SDS011;6039;52.576;13.348;2023-05-20T00:33:16;3.20;;;2.40;;
11957;SDS011;6039;52.576;13.348;2023-05-20T00:38:20;3.57;;;2.70;;
11957;SDS011;6039;52.576;13.348;2023-05-20T00:43:27;4.47;;;2.57;;
11957;SDS011;6039;52.576;13.348;2023-05-20T00:48:32;3.50;;;2.40;;
11957;SDS011;6039;52.576;13.348;2023-05-20T00:53:42;4.23;;;2.90;;
11957;SDS011;6039;52.576;13.348;2023-05-20T00:58:48;4.80;;;3.27;;
11957;SDS011;6039;52.576;13.348;2023-05-20T01:03:53;4.20;;;2.40;;
11957;SDS011;6039;52.576;13.348;2023-05-20T01:08:57;3.13;;;2.43;;
11957;SDS011;6039;52.576;13.348;2023-05-20T01:14:05;3.80;;;2.67;;
11957;SDS011;6039;52.576;13.348;2023-05-20T01:19:12;2.53;;;2.10;;
11957;SDS011;6039;52.576;13.348;2023-05-20T01:24:23;3.87;;;2.70;;
11957;SDS011;6039;52.576;13.348;2023-05-20T01:29:27;5.17;;;2.70;;
11957;SDS011;6039;52.576;13.348;2023-05-20T01:34:32;5.07;;;2.80;;
11957;SDS011;6039;52.576;13.348;2023-05-20T01:39:39;5.47;;;2.80;;
11957;SDS011;6039;52.576;13.348;2023-05-20T01:44:44;4.17;;;2.63;;
11957;SDS011;6039;52.576;13.348;2023-05-20T01:49:48;5.07;;;3.23;;
11957;SDS011;6039;52.576;13.348;2023-05-20T01:54:55;4.40;;;3.00;;
11957;SDS011;6039;52.576;13.348;2023-05-20T01:59:59;5.30;;;2.60;;
11957;SDS011;6039;52.576;13.348;2023-05-20T02:05:05;3.03;;;2.40;;
11957;SDS011;6039;52.576;13.348;2023-05-20T02:10:12;4.57;;;2.97;;
11957;SDS011;6039;52.576;13.348;2023-05-20T02:15:16;3.87;;;2.73;;
11957;SDS011;6039;52.576;13.348;2023-05-20T02:20:20;3.47;;;2.47;;
11957;SDS011;6039;52.576;13.348;2023-05-20T02:25:27;4.47;;;3.00;;
11957;SDS011;6039;52.576;13.348;2023-05-20T02:30:31;3.83;;;2.63;;
11957;SDS011;6039;52.576;13.348;2023-05-20T02:35:35;5.13;;;3.30;;
11957;SDS011;6039;52.576;13.348;2023-05-20T02:40:42;4.37;;;2.83;;
11957;SDS011;6039;52.576;13.348;2023-05-20T02:45:46;3.27;;;2.43;;
11957;SDS011;6039;52.576;13.348;2023-05-20T02:50:50;4.93;;;2.50;;
11957;SDS011;6039;52.576;13.348;2023-05-20T02:55:57;3.77;;;2.80;;
11957;SDS011;6039;52.576;13.348;2023-05-20T03:01:01;3.87;;;2.57;;
11957;SDS011;6039;52.576;13.348;2023-05-20T03:06:08;4.20;;;3.03;;
11957;SDS011;6039;52.576;13.348;2023-05-20T03:11:15;3.90;;;2.87;;
11957;SDS011;6039;52.576;13.348;2023-05-20T03:16:20;3.33;;;2.90;;
11957;SDS011;6039;52.576;13.348;2023-05-20T03:21:24;4.87;;;3.30;;
11957;SDS011;6039;52.576;13.348;2023-05-20T03:26:31;4.80;;;3.10;;
11957;SDS011;6039;52.576;13.348;2023-05-20T03:31:36;4.80;;;2.93;;
11957;SDS011;6039;52.576;13.348;2023-05-20T03:36:40;4.07;;;3.03;;
11957;SDS011;6039;52.576;13.348;2023-05-20T03:41:48;4.03;;;2.97;;
11957;SDS011;6039;52.576;13.348;2023-05-20T03:46:52;4.90;;;3.30;;
11957;SDS011;6039;52.576;13.348;2023-05-20T03:51:56;4.83;;;3.33;;
11957;SDS011;6039;52.576;13.348;2023-05-20T03:57:02;4.00;;;2.87;;
11957;SDS011;6039;52.576;13.348;2023-05-20T04:02:07;5.47;;;3.20;;
11957;SDS011;6039;52.576;13.348;2023-05-20T04:07:11;3.83;;;2.43;;
11957;SDS011;6039;52.576;13.348;2023-05-20T04:12:17;4.33;;;2.87;;
11957;SDS011;6039;52.576;13.348;2023-05-20T04:17:21;4.40;;;2.60;;
11957;SDS011;6039;52.576;13.348;2023-05-20T04:22:27;4.43;;;2.90;;
11957;SDS011;6039;52.576;13.348;2023-05-20T04:27:33;3.70;;;3.10;;
11957;SDS011;6039;52.576;13.348;2023-05-20T04:32:38;6.13;;;3.03;;
11957;SDS011;6039;52.576;13.348;2023-05-20T04:37:42;7.70;;;3.33;;
11957;SDS011;6039;52.576;13.348;2023-05-20T04:42:49;5.83;;;2.93;;
11957;SDS011;6039;52.576;13.348;2023-05-20T04:47:54;4.23;;;3.30;;
11957;SDS011;6039;52.576;13.348;2023-05-20T04:52:58;4.77;;;3.13;;
11957;SDS011;6039;52.576;13.348;2023-05-20T04:58:05;5.00;;;3.20;;
11957;SDS011;6039;52.576;13.348;2023-05-20T05:03:14;5.93;;;3.40;;
11957;SDS011;6039;52.576;13.348;2023-05-20T05:08:18;4.20;;;2.90;;
11957;SDS011;6039;52.576;13.348;2023-05-20T05:13:24;5.40;;;3.30;;
11957;SDS011;6039;52.576;13.348;2023-05-20T05:18:29;5.70;;;2.87;;
11957;SDS011;6039;52.576;13.348;2023-05-20T05:23:33;4.53;;;2.80;;
11957;SDS011;6039;52.576;13.348;2023-05-20T05:28:39;3.83;;;3.10;;
11957;SDS011;6039;52.576;13.348;2023-05-20T05:33:44;3.87;;;3.00;;
11957;SDS011;6039;52.576;13.348;2023-05-20T05:38:48;5.10;;;3.40;;
11957;SDS011;6039;52.576;13.348;2023-05-20T05:43:54;6.43;;;3.03;;
11957;SDS011;6039;52.576;13.348;2023-05-20T05:48:59;4.87;;;3.30;;
11957;SDS011;6039;52.576;13.348;2023-05-20T05:54:03;8.27;;;3.37;;
11957;SDS011;6039;52.576;13.348;2023-05-20T05:59:10;6.03;;;3.70;;
11957;SDS011;6039;52.576;13.348;2023-05-20T06:04:14;5.67;;;3.27;;
11957;SDS011;6039;52.576;13.348;2023-05-20T06:09:18;7.43;;;3.60;;
11957;SDS011;6039;52.576;13.348;2023-05-20T06:14:24;5.27;;;3.40;;
11957;SDS011;6039;52.576;13.348;2023-05-20T06:19:28;4.87;;;3.70;;
11957;SDS011;6039;52.576;13.348;2023-05-20T06:24:33;4.83;;;3.50;;
11957;SDS011;6039;52.576;13.348;2023-05-20T06:29:39;5.60;;;3.33;;
11957;SDS011;6039;52.576;13.348;2023-05-20T06:34:43;6.87;;;3.63;;
11957;SDS011;6039;52.576;13.348;2023-05-20T06:39:47;6.03;;;3.67;;
11957;SDS011;6039;52.576;13.348;2023-05-20T06:44:55;5.77;;;3.90;;
11957;SDS011;6039;52.576;13.348;2023-05-20T06:49:59;6.53;;;4.17;;
11957;SDS011;6039;52.576;13.348;2023-05-20T06:55:04;5.27;;;3.57;;
11957;SDS011;6039;52.576;13.348;2023-05-20T07:00:11;5.93;;;3.70;;
11957;SDS011;6039;52.576;13.348;2023-05-20T07:05:16;6.60;;;3.70;;
11957;SDS011;6039;52.576;13.348;2023-05-20T07:10:20;5.67;;;3.80;;
11957;SDS011;6039;52.576;13.348;2023-05-20T07:15:26;6.13;;;3.67;;
11957;SDS011;6039;52.576;13.348;2023-05-20T07:20:30;5.07;;;3.40;;
11957;SDS011;6039;52.576;13.348;2023-05-20T07:25:35;5.10;;;3.63;;
11957;SDS011;6039;52.576;13.348;2023-05-20T07:30:41;4.20;;;3.27;;
11957;SDS011;6039;52.576;13.348;2023-05-20T07:35:49;4.97;;;3.67;;
11957;SDS011;6039;52.576;13.348;2023-05-20T07:40:53;5.73;;;3.67;;
11957;SDS011;6039;52.576;13.348;2023-05-20T07:46:00;4.93;;;3.47;;
11957;SDS011;6039;52.576;13.348;2023-05-20T07:51:04;5.73;;;3.47;;
11957;SDS011;6039;52.576;13.348;2023-05-20T07:56:08;4.83;;;3.70;;
11957;SDS011;6039;52.576;13.348;2023-05-20T08:01:14;4.80;;;3.20;;
11957;SDS011;6039;52.576;13.348;2023-05-20T08:06:18;7.00;;;3.53;;
11957;SDS011;6039;52.576;13.348;2023-05-20T08:11:23;5.27;;;3.53;;
11957;SDS011;6039;52.576;13.348;2023-05-20T08:16:29;4.27;;;3.33;;
11957;SDS011;6039;52.576;13.348;2023-05-20T08:21:33;4.20;;;3.20;;
11957;SDS011;6039;52.576;13.348;2023-05-20T08:26:38;4.53;;;3.40;;
11957;SDS011;6039;52.576;13.348;2023-05-20T08:31:44;5.53;;;3.07;;
11957;SDS011;6039;52.576;13.348;2023-05-20T08:36:48;5.57;;;3.57;;
11957;SDS011;6039;52.576;13.348;2023-05-20T08:41:52;4.63;;;3.53;;
11957;SDS011;6039;52.576;13.348;2023-05-20T08:46:59;5.77;;;3.90;;
11957;SDS011;6039;52.576;13.348;2023-05-20T08:52:03;5.37;;;3.70;;
11957;SDS011;6039;52.576;13.348;2023-05-20T08:57:08;4.83;;;3.40;;
11957;SDS011;6039;52.576;13.348;2023-05-20T09:02:15;5.43;;;3.07;;
11957;SDS011;6039;52.576;13.348;2023-05-20T09:07:25;4.57;;;3.20;;
11957;SDS011;6039;52.576;13.348;2023-05-20T09:12:29;4.00;;;3.30;;
11957;SDS011;6039;52.576;13.348;2023-05-20T09:17:36;4.60;;;3.40;;
11957;SDS011;6039;52.576;13.348;2023-05-20T09:22:40;4.50;;;3.43;;
11957;SDS011;6039;52.576;13.348;2023-05-20T09:27:44;4.27;;;3.10;;
11957;SDS011;6039;52.576;13.348;2023-05-20T09:32:54;7.57;;;3.60;;
11957;SDS011;6039;52.576;13.348;2023-05-20T09:37:59;4.93;;;3.57;;
11957;SDS011;6039;52.576;13.348;2023-05-20T09:43:04;4.47;;;3.20;;
11957;SDS011;6039;52.576;13.348;2023-05-20T09:48:12;4.73;;;3.43;;
11957;SDS011;6039;52.576;13.348;2023-05-20T09:53:17;6.30;;;4.10;;
11957;SDS011;6039;52.576;13.348;2023-05-20T09:58:21;5.73;;;3.67;;
11957;SDS011;6039;52.576;13.348;2023-05-20T10:03:28;6.73;;;3.77;;
11957;SDS011;6039;52.576;13.348;2023-05-20T10:08:45;6.33;;;4.27;;
11957;SDS011;6039;52.576;13.348;2023-05-20T10:14:01;6.73;;;4.10;;
11957;SDS011;6039;52.576;13.348;2023-05-20T10:19:16;4.80;;;3.83;;
11957;SDS011;6039;52.576;13.348;2023-05-20T10:24:30;4.87;;;4.00;;
11957;SDS011;6039;52.576;13.348;2023-05-20T10:29:43;5.97;;;4.07;;
11957;SDS011;6039;52.576;13.348;2023-05-20T10:35:00;5.63;;;4.10;;
11957;SDS011;6039;52.576;13.348;2023-05-20T10:40:05;5.50;;;3.73;;
11957;SDS011;6039;52.576;13.348;2023-05-20T10:45:10;6.13;;;4.03;;
11957;SDS011;6039;52.576;13.348;2023-05-20T10:50:27;5.97;;;4.00;;
11957;SDS011;6039;52.576;13.348;2023-05-20T10:55:35;7.63;;;4.40;;
11957;SDS011;6039;52.576;13.348;2023-05-20T11:00:41;6.37;;;4.10;;
11957;SDS011;6039;52.576;13.348;2023-05-20T11:05:48;7.27;;;4.00;;
11957;SDS011;6039;52.576;13.348;2023-05-20T11:10:52;5.90;;;4.10;;
11957;SDS011;6039;52.576;13.348;2023-05-20T11:15:59;6.27;;;3.83;;
11957;SDS011;6039;52.576;13.348;2023-05-20T11:21:06;6.27;;;4.47;;
11957;SDS011;6039;52.576;13.348;2023-05-20T11:26:10;5.77;;;4.30;;
11957;SDS011;6039;52.576;13.348;2023-05-20T11:31:14;6.23;;;4.67;;
11957;SDS011;6039;52.576;13.348;2023-05-20T11:36:21;6.63;;;4.77;;
11957;SDS011;6039;52.576;13.348;2023-05-20T11:41:27;6.93;;;4.67;;
11957;SDS011;6039;52.576;13.348;2023-05-20T11:46:31;6.87;;;4.30;;
11957;SDS011;6039;52.576;13.348;2023-05-20T11:51:46;7.23;;;5.03;;
11957;SDS011;6039;52.576;13.348;2023-05-20T11:56:50;5.97;;;4.37;;
11957;SDS011;6039;52.576;13.348;2023-05-20T12:01:55;6.07;;;4.37;;
11957;SDS011;6039;52.576;13.348;2023-05-20T12:07:02;5.67;;;3.90;;
11957;SDS011;6039;52.576;13.348;2023-05-20T12:12:08;7.53;;;4.33;;
11957;SDS011;6039;52.576;13.348;2023-05-20T12:17:13;6.20;;;4.70;;
11957;SDS011;6039;52.576;13.348;2023-05-20T12:22:19;7.43;;;4.80;;
11957;SDS011;6039;52.576;13.348;2023-05-20T12:27:23;7.57;;;4.90;;
11957;SDS011;6039;52.576;13.348;2023-05-20T12:32:27;6.40;;;4.70;;
11957;SDS011;6039;52.576;13.348;2023-05-20T12:37:34;5.80;;;4.30;;
11957;SDS011;6039;52.576;13.348;2023-05-20T12:42:38;5.83;;;4.53;;
11957;SDS011;6039;52.576;13.348;2023-05-20T12:47:43;5.87;;;4.63;;
11957;SDS011;6039;52.576;13.348;2023-05-20T12:52:50;9.60;;;4.47;;
11957;SDS011;6039;52.576;13.348;2023-05-20T12:57:54;6.27;;;4.87;;
11957;SDS011;6039;52.576;13.348;2023-05-20T13:02:58;5.93;;;4.77;;
11957;SDS011;6039;52.576;13.348;2023-05-20T13:08:04;5.70;;;4.80;;
11957;SDS011;6039;52.576;13.348;2023-05-20T13:13:10;8.60;;;4.60;;
11957;SDS011;6039;52.576;13.348;2023-05-20T13:18:20;6.17;;;4.93;;
11957;SDS011;6039;52.576;13.348;2023-05-20T13:23:26;6.40;;;4.77;;
11957;SDS011;6039;52.576;13.348;2023-05-20T13:28:30;6.27;;;4.87;;
11957;SDS011;6039;52.576;13.348;2023-05-20T13:33:34;5.40;;;4.13;;
11957;SDS011;6039;52.576;13.348;2023-05-20T13:38:41;6.00;;;4.87;;
11957;SDS011;6039;52.576;13.348;2023-05-20T13:43:45;5.30;;;4.43;;
11957;SDS011;6039;52.576;13.348;2023-05-20T13:48:49;5.97;;;4.80;;
11957;SDS011;6039;52.576;13.348;2023-05-20T13:53:55;6.50;;;4.10;;
11957;SDS011;6039;52.576;13.348;2023-05-20T13:59:00;5.40;;;4.37;;
11957;SDS011;6039;52.576;13.348;2023-05-20T14:04:04;5.10;;;4.50;;
11957;SDS011;6039;52.576;13.348;2023-05-20T14:09:10;4.80;;;4.23;;
11957;SDS011;6039;52.576;13.348;2023-05-20T14:14:14;5.47;;;4.43;;
11957;SDS011;6039;52.576;13.348;2023-05-20T14:19:18;5.47;;;4.40;;
11957;SDS011;6039;52.576;13.348;2023-05-20T14:24:25;5.50;;;4.40;;
11957;SDS011;6039;52.576;13.348;2023-05-20T14:29:29;6.30;;;4.80;;
11957;SDS011;6039;52.576;13.348;2023-05-20T14:34:33;5.83;;;4.60;;
11957;SDS011;6039;52.576;13.348;2023-05-20T14:39:39;7.67;;;4.70;;
11957;SDS011;6039;52.576;13.348;2023-05-20T14:44:43;5.97;;;4.60;;
11957;SDS011;6039;52.576;13.348;2023-05-20T14:49:47;5.53;;;3.93;;
11957;SDS011;6039;52.576;13.348;2023-05-20T14:54:54;6.27;;;4.50;;
11957;SDS011;6039;52.576;13.348;2023-05-20T14:59:58;6.57;;;4.53;;
11957;SDS011;6039;52.576;13.348;2023-05-20T15:05:02;5.67;;;4.37;;
11957;SDS011;6039;52.576;13.348;2023-05-20T15:10:09;4.87;;;4.13;;
11957;SDS011;6039;52.576;13.348;2023-05-20T15:15:13;5.27;;;4.20;;
11957;SDS011;6039;52.576;13.348;2023-05-20T15:20:17;8.53;;;4.83;;
11957;SDS011;6039;52.576;13.348;2023-05-20T15:25:23;6.50;;;4.43;;
11957;SDS011;6039;52.576;13.348;2023-05-20T15:30:27;5.40;;;3.83;;
11957;SDS011;6039;52.576;13.348;2023-05-20T15:35:31;5.50;;;4.57;;
11957;SDS011;6039;52.576;13.348;2023-05-20T15:40:38;5.17;;;4.03;;
11957;SDS011;6039;52.576;13.348;2023-05-20T15:45:42;6.13;;;4.73;;
11957;SDS011;6039;52.576;13.348;2023-05-20T15:50:47;5.37;;;4.20;;
11957;SDS011;6039;52.576;13.348;2023-05-20T15:55:53;6.13;;;4.40;;
11957;SDS011;6039;52.576;13.348;2023-05-20T16:00:57;7.23;;;4.77;;
11957;SDS011;6039;52.576;13.348;2023-05-20T16:06:01;6.40;;;4.50;;
11957;SDS011;6039;52.576;13.348;2023-05-20T16:11:09;5.40;;;4.40;;
11957;SDS011;6039;52.576;13.348;2023-05-20T16:16:13;4.93;;;4.10;;
11957;SDS011;6039;52.576;13.348;2023-05-20T16:21:17;5.17;;;4.10;;
11957;SDS011;6039;52.576;13.348;2023-05-20T16:26:27;6.67;;;4.60;;
11957;SDS011;6039;52.576;13.348;2023-05-20T16:31:32;4.87;;;3.90;;
11957;SDS011;6039;52.576;13.348;2023-05-20T16:36:36;4.40;;;3.70;;
11957;SDS011;6039;52.576;13.348;2023-05-20T16:41:43;5.23;;;4.33;;
11957;SDS011;6039;52.576;13.348;2023-05-20T16:46:47;5.00;;;4.07;;
11957;SDS011;6039;52.576;13.348;2023-05-20T16:51:51;5.13;;;4.10;;
11957;SDS011;6039;52.576;13.348;2023-05-20T16:56:58;4.77;;;4.10;;
11957;SDS011;6039;52.576;13.348;2023-05-20T17:02:02;5.30;;;4.17;;
11957;SDS011;6039;52.576;13.348;2023-05-20T17:07:06;6.60;;;4.27;;
11957;SDS011;6039;52.576;13.348;2023-05-20T17:12:13;4.40;;;4.00;;
11957;SDS011;6039;52.576;13.348;2023-05-20T17:17:17;5.27;;;4.30;;
11957;SDS011;6039;52.576;13.348;2023-05-20T17:22:21;4.87;;;4.03;;
11957;SDS011;6039;52.576;13.348;2023-05-20T17:27:28;5.47;;;4.43;;
11957;SDS011;6039;52.576;13.348;2023-05-20T17:32:32;5.93;;;4.20;;
11957;SDS011;6039;52.576;13.348;2023-05-20T17:37:37;6.37;;;4.00;;
11957;SDS011;6039;52.576;13.348;2023-05-20T17:42:43;5.00;;;3.93;;
11957;SDS011;6039;52.576;13.348;2023-05-20T17:47:48;5.53;;;4.60;;
11957;SDS011;6039;52.576;13.348;2023-05-20T17:52:52;6.47;;;4.03;;
11957;SDS011;6039;52.576;13.348;2023-05-20T17:57:59;6.57;;;4.33;;
11957;SDS011;6039;52.576;13.348;2023-05-20T18:03:03;7.20;;;5.80;;
11957;SDS011;6039;52.576;13.348;2023-05-20T18:08:07;5.60;;;4.60;;
11957;SDS011;6039;52.576;13.348;2023-05-20T18:13:13;6.40;;;4.80;;
11957;SDS011;6039;52.576;13.348;2023-05-20T18:18:17;7.13;;;4.77;;
11957;SDS011;6039;52.576;13.348;2023-05-20T18:23:21;5.30;;;4.23;;
11957;SDS011;6039;52.576;13.348;2023-05-20T18:28:30;6.27;;;4.77;;
11957;SDS011;6039;52.576;13.348;2023-05-20T18:33:34;5.33;;;4.00;;
11957;SDS011;6039;52.576;13.348;2023-05-20T18:38:39;6.43;;;4.60;;
11957;SDS011;6039;52.576;13.348;2023-05-20T18:43:46;5.03;;;4.13;;
11957;SDS011;6039;52.576;13.348;2023-05-20T18:48:50;6.10;;;4.73;;
11957;SDS011;6039;52.576;13.348;2023-05-20T18:53:54;6.33;;;4.87;;
11957;SDS011;6039;52.576;13.348;2023-05-20T18:59:01;7.27;;;4.50;;
11957;SDS011;6039;52.576;13.348;2023-05-20T19:04:05;7.53;;;4.70;;
11957;SDS011;6039;52.576;13.348;2023-05-20T19:09:09;7.33;;;5.40;;
11957;SDS011;6039;52.576;13.348;2023-05-20T19:14:16;8.20;;;5.33;;
11957;SDS011;6039;52.576;13.348;2023-05-20T19:19:20;6.87;;;4.80;;
11957;SDS011;6039;52.576;13.348;2023-05-20T19:24:24;7.03;;;5.40;;
11957;SDS011;6039;52.576;13.348;2023-05-20T19:29:33;8.03;;;5.60;;
11957;SDS011;6039;52.576;13.348;2023-05-20T19:34:37;6.87;;;5.70;;
11957;SDS011;6039;52.576;13.348;2023-05-20T19:39:42;7.77;;;5.30;;
11957;SDS011;6039;52.576;13.348;2023-05-20T19:44:49;7.53;;;5.63;;
11957;SDS011;6039;52.576;13.348;2023-05-20T19:49:53;6.87;;;5.77;;
11957;SDS011;6039;52.576;13.348;2023-05-20T19:54:57;8.10;;;6.27;;
11957;SDS011;6039;52.576;13.348;2023-05-20T20:00:04;8.77;;;6.40;;
11957;SDS011;6039;52.576;13.348;2023-05-20T20:05:10;7.77;;;5.77;;
11957;SDS011;6039;52.576;13.348;2023-05-20T20:10:14;9.43;;;6.63;;
11957;SDS011;6039;52.576;13.348;2023-05-20T20:15:20;8.37;;;6.07;;
11957;SDS011;6039;52.576;13.348;2023-05-20T20:20:26;7.23;;;5.90;;
11957;SDS011;6039;52.576;13.348;2023-05-20T20:25:36;9.30;;;6.33;;
11957;SDS011;6039;52.576;13.348;2023-05-20T20:30:44;6.93;;;5.70;;
11957;SDS011;6039;52.576;13.348;2023-05-20T20:35:48;9.07;;;5.97;;
11957;SDS011;6039;52.576;13.348;2023-05-20T20:40:53;7.30;;;6.00;;
11957;SDS011;6039;52.576;13.348;2023-05-20T20:46:00;10.07;;;5.83;;
11957;SDS011;6039;52.576;13.348;2023-05-20T20:51:05;6.87;;;5.67;;
11957;SDS011;6039;52.576;13.348;2023-05-20T20:56:09;8.10;;;6.37;;
11957;SDS011;6039;52.576;13.348;2023-05-20T21:01:16;8.33;;;6.07;;
11957;SDS011;6039;52.576;13.348;2023-05-20T21:06:20;7.53;;;6.73;;
11957;SDS011;6039;52.576;13.348;2023-05-20T21:11:24;8.43;;;6.90;;
11957;SDS011;6039;52.576;13.348;2023-05-20T21:16:31;9.03;;;6.77;;
11957;SDS011;6039;52.576;13.348;2023-05-20T21:21:35;10.43;;;6.90;;
11957;SDS011;6039;52.576;13.348;2023-05-20T21:26:39;10.03;;;6.20;;
11957;SDS011;6039;52.576;13.348;2023-05-20T21:31:45;8.63;;;6.40;;
11957;SDS011;6039;52.576;13.348;2023-05-20T21:36:50;9.67;;;7.40;;
11957;SDS011;6039;52.576;13.348;2023-05-20T21:41:54;10.00;;;6.87;;
11957;SDS011;6039;52.576;13.348;2023-05-20T21:47:00;8.20;;;6.80;;
11957;SDS011;6039;52.576;13.348;2023-05-20T21:52:04;9.60;;;7.07;;
11957;SDS011;6039;52.576;13.348;2023-05-20T21:57:09;8.73;;;6.80;;
11957;SDS011;6039;52.576;13.348;2023-05-20T22:02:15;10.73;;;7.70;;
11957;SDS011;6039;52.576;13.348;2023-05-20T22:07:19;10.70;;;7.87;;
11957;SDS011;6039;52.576;13.348;2023-05-20T22:12:23;12.37;;;7.57;;
11957;SDS011;6039;52.576;13.348;2023-05-20T22:17:31;8.50;;;7.03;;
11957;SDS011;6039;52.576;13.348;2023-05-20T22:22:36;11.17;;;7.47;;
11957;SDS011;6039;52.576;13.348;2023-05-20T22:27:40;11.20;;;7.50;;
11957;SDS011;6039;52.576;13.348;2023-05-20T22:32:47;9.90;;;8.00;;
11957;SDS011;6039;52.576;13.348;2023-05-20T22:37:51;10.40;;;7.50;;
11957;SDS011;6039;52.576;13.348;2023-05-20T22:42:56;8.60;;;7.23;;
11957;SDS011;6039;52.576;13.348;2023-05-20T22:48:02;10.93;;;7.17;;
11957;SDS011;6039;52.576;13.348;2023-05-20T22:53:07;10.00;;;8.00;;
11957;SDS011;6039;52.576;13.348;2023-05-20T22:58:11;11.20;;;8.30;;
11957;SDS011;6039;52.576;13.348;2023-05-20T23:03:18;9.03;;;7.70;;
11957;SDS011;6039;52.576;13.348;2023-05-20T23:08:22;10.43;;;8.03;;
11957;SDS011;6039;52.576;13.348;2023-05-20T23:13:26;10.37;;;8.27;;
11957;SDS011;6039;52.576;13.348;2023-05-20T23:18:33;9.80;;;7.60;;
11957;SDS011;6039;52.576;13.348;2023-05-20T23:23:37;11.50;;;8.73;;
11957;SDS011;6039;52.576;13.348;2023-05-20T23:28:41;11.67;;;8.30;;
11957;SDS011;6039;52.576;13.348;2023-05-20T23:33:47;12.43;;;8.50;;
11957;SDS011;6039;52.576;13.348;2023-05-20T23:38:51;10.73;;;8.47;;
11957;SDS011;6039;52.576;13.348;2023-05-20T23:43:55;11.77;;;8.30;;
11957;SDS011;6039;52.576;13.348;2023-05-20T23:49:03;11.73;;;8.60;;
11957;SDS011;6039;52.576;13.348;2023-05-20T23:54:09;11.73;;;8.17;;
11957;SDS011;6039;52.576;13.348;2023-05-20T23:59:13;9.90;;;8.20;;
